logo
App data

Teenage Mutant Ninja Turtles: Mutants in Manhattan

Store | Hub | SteamDB | Site
Developer: PlatinumGames Publisher: Activision
Genre: Action, Adventure
Languages: English, French, Italian, German, Spanish
Tags: Action (47), Adventure (38), Co-op (27), Ninja (26), Hack and Slash (19), Spectacle fighter (18), Character Action Game (14), Beat 'em up (13), Multiplayer (12), Open World (8), Comic Book (8)
Category: Single-player, Multi-player, Co-op, Steam Achievements, Full controller support, Steam Leaderboards
Release date: May 24, 2016
Price: $39.99
Score rank: 24% Userscore: 64% Old userscore: 63%
Owners: 0 .. 20,000
Followers: 6,635
Peak concurrent players yesterday: 5
Playtime total: 01:29 (average) 02:13 (median)

Steam Spy is still in beta, so expect major bugs.

Owners data:

Access restricted.

This feature is only available to users with special access rights. Sorry.

If you want to proceed, you need to register or log in first and then back Steam Spy on Patreon. Look for Indie or Pro pledge.

Don't forget to use the same email as on Steam Spy!

Audience in 2 weeks:

Access restricted.

This feature is only available to users with special access rights. Sorry.

If you want to proceed, you need to register or log in first and then back Steam Spy on Patreon. Look for Indie or Pro pledge.

Don't forget to use the same email as on Steam Spy!

Peak daily concurrent players:

CCU data courtesy of SteamDB. Used with permission.

Hourly concurrent players:

Daily Twitch stats:

Hourly Twitch stats:

YouTube:

The views data is based on top 50 videos uploaded last week. Actual number of views might be more than the number shown.

The displayed number of videos uploaded yesterday is limited to 50, so if there were more videos uploaded, the number will still show 50.

If the game has commonly used word as its name (like "FEAR" or "Volume") its number of Youtube views might be wrong.

Games similar to this one:

# Game Release date
Price
Score rank
(Userscore / Metascore)
Owners
Players
Playtime (Median)
1 Umihara Kawase Nov 2, 2015 $9.9999% (98%)0 .. 20,0000%00:00 (00:00)
2 Bot Vice Jul 11, 2016 $5.9995% (96%)20,000 .. 50,0006.67%00:06 (00:04)
3 Supercharged Robot VULKAISER Jun 4, 2015 $4.9990% (94%)20,000 .. 50,0000%00:00 (00:00)
4 The Sum of All Fears May 31, 2002 $9.99N/A (N/A/72%)0 .. 20,0000%00:00 (00:00)
5 Below Kryll Sep 7, 2015 $4.9983% (92%)0 .. 20,0000%00:00 (00:00)
6 Chicken Invaders 3 Jun 8, 2015 $4.9979% (91%)0 .. 20,0000%00:00 (00:00)
7 Giga Girl Mar 23, 2016 $1.49N/A (N/A)0 .. 20,0000%00:00 (00:00)
8 Sam & Max 104: Abe Lincoln Must Die! Feb 22, 2007 $19.9976% (90%)100,000 .. 200,0000%00:00 (00:00)
9 Joint Operations: Combined Arms Gold Aug 18, 2009 $19.9970% (88%)0 .. 20,0000%00:00 (00:00)
10 Earth Overclocked Dec 4, 2015 $9.9970% (88%)20,000 .. 50,0000%00:00 (00:00)
11 Intrude Aug 1, 2016 $3.9968% (87%)0 .. 20,0000%00:00 (00:00)
12 SPINGUN Nov 11, 2016 $1.9968% (87%)0 .. 20,0000%00:00 (00:00)
13 Disney's Chicken Little Oct 20, 2005 $9.9965% (86%)0 .. 20,0000%00:00 (00:00)
14 Rocket Fist May 12, 2016 $4.9965% (86%)0 .. 20,0005.26%02:10 (00:43)
15 Ittle Dew 2 Nov 15, 2016 $19.9965% (86%)0 .. 20,00016.67%00:17 (00:05)
16 ARCADE GAME SERIES: GALAGA Apr 19, 2016 $3.9965% (86%)50,000 .. 100,0002.91%00:13 (00:10)
17 N2O: Nitrous Oxide Jun 29, 2015 $4.99N/A (N/A)0 .. 20,0000%00:00 (00:00)
18 NeonXSZ Feb 22, 2016 $14.9962% (85%)0 .. 20,0000%00:00 (00:00)
19 Super Rad Raygun Nov 15, 2016 $4.99N/A (N/A/64%)0 .. 20,0000%00:00 (00:00)
20 Dyna Bomb May 13, 2016 $4.99N/A (N/A)0 .. 20,0000%00:00 (00:00)
21 MDK 2 May 1, 2000 $9.9960% (84%/83%)20,000 .. 50,0000%00:00 (00:00)
22 Gurgamoth Feb 16, 2016 $4.9960% (84%)50,000 .. 100,0001.77%00:16 (00:10)
23 LUMBERMANCER Jun 28, 2016 $2.99N/A (N/A)0 .. 20,0000%00:00 (00:00)
24 Nandeyanen!? - The 1st Sûtra Jul 22, 2015 $1.99N/A (N/A)0 .. 20,0000%00:00 (00:00)
25 Rad Rodgers: World One Dec 1, 2016 $19.9955% (82%/72%)0 .. 20,0000%00:00 (00:00)
26 Cinemaware Anthology: 1986-1991 Nov 14, 2014 $9.9953% (81%)0 .. 20,0000%00:00 (00:00)
27 Weapon of Choice Sep 23, 2015 $4.99N/A (N/A)0 .. 20,0003.03%00:03 (00:01)
28 Game Type Sep 23, 2015 $2.99N/A (N/A)0 .. 20,0000%00:00 (00:00)
29 Zenohell Oct 14, 2015 $9.9950% (80%)20,000 .. 50,0001.19%102:26 (34:08)
30 Urban Chaos Nov 30, 1999 $6.9950% (80%)0 .. 20,0000%00:00 (00:00)
31 Mekazoo Nov 14, 2016 $9.9946% (78%/80%)0 .. 20,0000%00:00 (00:00)
32 Deadly 30 Jan 8, 2014 $4.9946% (78%)100,000 .. 200,0004.44%03:13 (02:11)
33 Xenocide Aug 28, 2015 $2.99N/A (N/A)0 .. 20,0000%00:00 (00:00)
34 A Blind Legend Apr 7, 2016 $6.9944% (77%)0 .. 20,0000%00:00 (00:00)
35 Arkshot May 19, 2016 $4.9944% (77%)0 .. 20,0000%00:00 (00:00)
36 Olympia Rising Jul 23, 2015 $4.9944% (77%)0 .. 20,0000%00:00 (00:00)
37 Gemini: Heroes Reborn Jan 18, 2016 $4.9944% (77%/54%)50,000 .. 100,0000%00:00 (00:00)
38 Starchaser: Priestess of the Night Sky Jul 24, 2015 $9.99N/A (N/A)0 .. 20,0000%00:00 (00:00)
39 Viking Saga: The Cursed Ring Oct 29, 2015 $2.99N/A (N/A)0 .. 20,0000%00:00 (00:00)
40 Extravaganza Rising Jul 21, 2016 $5.99N/A (N/A)20,000 .. 50,0000%00:00 (00:00)
41 Ladra Nov 13, 2015 $1.99N/A (N/A)20,000 .. 50,0007.81%01:27 (02:02)
42 FIVE: Champions of Canaan Sep 27, 2016 $3.9941% (75%)0 .. 20,0000%00:00 (00:00)
43 Boulder Dash - 30th Anniversary Sep 13, 2016 $14.99N/A (N/A)0 .. 20,0000%00:00 (00:00)
44 Zombie Vikings Dec 7, 2015 $11.9937% (73%/74%)0 .. 20,0001.59%02:01 (00:40)
45 Wyv and Keep: The Temple of the Lost Idol Aug 8, 2014 $14.9935% (72%)20,000 .. 50,0000%00:00 (00:00)
46 Smithy Jun 3, 2016 $3.99N/A (N/A)50,000 .. 100,0000.57%00:01 (00:00)
47 The Eigengrau Menagerie Jun 4, 2015 $2.99N/A (N/A)0 .. 20,0000%00:00 (00:00)
48 Traverser Jul 9, 2015 $14.9935% (72%/61%)0 .. 20,0008.33%01:00 (00:20)
49 Death Tractor Oct 29, 2015 $0.99N/A (N/A)0 .. 20,0000%00:00 (00:00)
50 Tank Brawl Apr 20, 2016 $4.99N/A (N/A)0 .. 20,0000%00:00 (00:00)
51 Deadlight: Director's Cut Jun 21, 2016 $11.9932% (70%)100,000 .. 200,0000.56%00:21 (00:07)
52 Darkest of Days Sep 2009 $19.9931% (69%/51%)0 .. 20,0000%00:00 (00:00)
53 Operation: Matriarchy Jan 29, 2016 $0.59N/A (N/A)0 .. 20,0000%00:00 (00:00)
54 Pixel-Warfare: Pro Sep 20, 2016 $0.9929% (68%)20,000 .. 50,0000%00:00 (00:00)
55 Fair Strike Feb 5, 2004 $3.99N/A (N/A/56%)0 .. 20,0000%00:00 (00:00)
56 ARMA: Combat Operations May 8, 2007 $7.9928% (67%/74%)20,000 .. 50,0000%00:00 (00:00)
57 Battle Of Europe Mar 23, 2006 $9.99N/A (N/A/54%)0 .. 20,0000%00:00 (00:00)
58 BIOS Dec 13, 2016 $14.9926% (66%)0 .. 20,0000%00:00 (00:00)
59 Zoo Rampage Jul 9, 2014 $3.9924% (64%)0 .. 20,0000%00:00 (00:00)
60 Revenge of Roger Rouge Apr 22, 2016 $0.99N/A (N/A)20,000 .. 50,0000.4%02:22 (00:47)
61 Mytheon Dec 8, 2015 $9.9924% (64%)0 .. 20,0000%00:00 (00:00)
62 Urban Pirate Jun 17, 2016 $6.99N/A (N/A)0 .. 20,0000%00:00 (00:00)
63 Cubway Aug 11, 2016 $3.9924% (64%)100,000 .. 200,0007.34%00:01 (00:01)
64 Nightmare on Azathoth Oct 30, 2015 $0.99N/A (N/A)0 .. 20,0000%00:00 (00:00)
65 E.T. Armies Mar 3, 2016 $14.9920% (61%/54%)0 .. 20,0000%00:00 (00:00)
66 Momento Temporis: Light from the Deep Oct 27, 2016 $4.99N/A (N/A)0 .. 20,0000%00:00 (00:00)
67 Lolly Joe Aug 5, 2016 $2.99N/A (N/A)0 .. 20,0000%00:00 (00:00)
68 Overruled! Sep 15, 2015 $12.9919% (60%)20,000 .. 50,0000%00:00 (00:00)
69 VR Journey Dec 15, 2016 $2.9918% (59%)20,000 .. 50,0000%00:00 (00:00)
70 Beatbuddy: On Tour Dec 4, 2015 $6.99N/A (N/A)0 .. 20,0000%00:00 (00:00)
71 Sir! I'd Like To Report A Bug! Oct 19, 2015 $1.99N/A (N/A)0 .. 20,0000%00:00 (00:00)
72 Elements: Epic Heroes Dec 21, 2015 $6.99N/A (N/A)0 .. 20,0000%00:00 (00:00)
73 Assassins vs Pirates May 10, 2016 $7.9916% (57%)0 .. 20,0000%00:00 (00:00)
74 Rocko's Quest Jul 30, 2003 $4.99N/A (N/A/41%)0 .. 20,0000%00:00 (00:00)
75 Exodus from the Earth Oct 24, 2008 $14.9916% (57%)0 .. 20,0000%00:00 (00:00)
76 GAROU: MARK OF THE WOLVES Dec 6, 2016 $9.9915% (56%)0 .. 20,0000%00:00 (00:00)
77 Stay Close Oct 14, 2016 $8.9915% (55%)0 .. 20,0000%00:00 (00:00)
78 Princess Kaguya: Legend of the Moon Warrior Aug 4, 2015 $10.99N/A (N/A)0 .. 20,0008.06%04:02 (01:58)
79 SHOCK TROOPERS 2nd Squad Sep 28, 2016 $7.99N/A (N/A)0 .. 20,0000%00:00 (00:00)
80 Coniclysm Mar 26, 2010 $4.99N/A (N/A)0 .. 20,0000%00:00 (00:00)
81 B.A.D Battle Armor Division Aug 18, 2015 $5.99N/A (N/A)0 .. 20,0000%00:00 (00:00)
82 Marvel: Ultimate Alliance 2 Jul 26, 2016 $39.9912% (51%)0 .. 20,0000%00:00 (00:00)
83 Mortos Nov 14, 2016 $1.9910% (48%)0 .. 20,0000%00:00 (00:00)
84 ALONE IN SPACE Feb 22, 2016 $9.9910% (48%)0 .. 20,0000%00:00 (00:00)
85 Fastigium Dec 17, 2016 FreeN/A (N/A)0 .. 20,0000%00:00 (00:00)
86 Blasting Agent: Ultimate Edition Aug 17, 2016 $2.99N/A (N/A)0 .. 20,0000%00:00 (00:00)
87 Megamagic: Wizards of the Neon Age Apr 20, 2016 $9.999% (46%/67%)20,000 .. 50,0000%00:00 (00:00)
88 Super Dungeon Bros Nov 1, 2016 $19.999% (46%)0 .. 20,0000%00:00 (00:00)
89 ! That Bastard Is Trying To Steal Our Gold ! Mar 3, 2016 $3.999% (46%)50,000 .. 100,00010.13%00:25 (00:02)
90 Avaris 2: The Return of the Empress Dec 14, 2015 $7.99N/A (N/A)0 .. 20,0000%00:00 (00:00)
91 Dawn of Warriors Oct 7, 2016 $4.99N/A (N/A)0 .. 20,0000%00:00 (00:00)
92 Damage Inc. Pacific Squadron WWII Aug 28, 2012 $39.99N/A (N/A)0 .. 20,0000%00:00 (00:00)
93 Zombie Apocalypse: Escape The Undead City Jun 17, 2016 $0.996% (39%)0 .. 20,0000%00:00 (00:00)
94 Twin Sector Sep 16, 2009 $4.996% (38%/49%)50,000 .. 100,0000%00:00 (00:00)
95 Red Goddess: Inner World Aug 31, 2015 $9.995% (37%/53%)0 .. 20,0000%00:00 (00:00)
96 Drug Wars Mar 17, 2009 $4.99N/A (N/A/35%)0 .. 20,0000%00:00 (00:00)
97 Ku: Shroud of the Morrigan Mar 17, 2014 $4.99N/A (N/A)20,000 .. 50,0000%00:00 (00:00)
98 Alone in the Dark: Illumination Jun 11, 2015 $19.992% (24%)0 .. 20,0000%00:00 (00:00)
99 Elite vs. Freedom May 31, 2016 $0.992% (22%)0 .. 20,0000%00:00 (00:00)
100 Barbarian Brawl Feb 12, 2015 $4.99N/A (N/A)0 .. 20,0000%00:00 (00:00)
101 Project Pulsation Dec 15, 2015 $4.991% (6%)200,000 .. 500,0000.61%00:59 (00:59)
102 Miaou Moon Aug 16, 2016 $9.99N/A (N/A)0 .. 20,0000%00:00 (00:00)
103 The Escapist Sep 15, 2014 $4.99N/A (N/A)0 .. 20,0000%00:00 (00:00)
104 Anthelion Jul 25, 2016 $14.99N/A (N/A)0 .. 20,0000%00:00 (00:00)
105 Systematic Immunity May 20, 2016 $6.99N/A (N/A)0 .. 20,0000%00:00 (00:00)
106 Animal Gods Oct 12, 2015 $9.99N/A (N/A/50%)0 .. 20,00010%02:05 (00:41)
107 Hush Hush - Unlimited Survival Horror Mar 25, 2016 $1.99N/A (N/A)0 .. 20,0000%00:00 (00:00)
108 Unearthing Colossal Oct 21, 2016 $14.99N/A (N/A)0 .. 20,0006.06%01:55 (00:40)
109 Kabitis Jun 2, 2016 $1.99N/A (N/A)100,000 .. 200,0000.51%01:04 (01:25)
110 Porradaria Upgrade Sep 30, 2015 $4.99N/A (N/A)20,000 .. 50,0000%00:00 (00:00)
111 Doomed Kingdoms Dec 12, 2016 $3.99N/A (N/A)200,000 .. 500,0000%00:00 (00:00)
112 SWR JST DX Selective Memory Erase Effect Apr 20, 2015 $4.99N/A (N/A)0 .. 20,0000%00:00 (00:00)
113 Izeriya Apr 28, 2016 $0.99N/A (N/A)0 .. 20,0000%00:00 (00:00)

Owners of this game also own:

Access restricted.

This feature is only available to users with special access rights. Sorry.

If you want to proceed, you need to register or log in first and then back Steam Spy on Patreon. Look for Indie or Pro pledge.

Don't forget to use the same email as on Steam Spy!

Playtime distribution:

Access restricted.

This feature is only available to users with special access rights. Sorry.

If you want to proceed, you need to register or log in first and then back Steam Spy on Patreon. Look for Indie or Pro pledge.

Don't forget to use the same email as on Steam Spy!

Playtime (2 weeks):

Access restricted.

This feature is only available to users with special access rights. Sorry.

If you want to proceed, you need to register or log in first and then back Steam Spy on Patreon. Look for Indie or Pro pledge.

Don't forget to use the same email as on Steam Spy!

User reviews:

Login required.

Please register or log in to see this information.